createdAt,value
2023-05-20T00:00:23.070Z,12.70
2023-05-20T00:03:25.549Z,14.13
2023-05-20T00:06:28.033Z,12.40
2023-05-20T00:09:30.227Z,13.70
2023-05-20T00:12:32.439Z,11.48
2023-05-20T00:15:36.174Z,13.40
2023-05-20T00:18:38.795Z,18.30
2023-05-20T00:21:40.950Z,15.40
2023-05-20T00:24:43.070Z,13.68
2023-05-20T00:27:45.249Z,16.25
2023-05-20T00:30:47.494Z,11.43
2023-05-20T00:33:49.787Z,10.93
2023-05-20T00:36:52.260Z,10.13
2023-05-20T00:39:54.472Z,12.40
2023-05-20T00:42:56.790Z,10.40
2023-05-20T00:45:59.052Z,9.60
2023-05-20T00:49:01.575Z,13.80
2023-05-20T00:52:03.884Z,12.95
2023-05-20T00:55:06.267Z,12.30
2023-05-20T00:58:08.701Z,12.93
2023-05-20T01:01:11.059Z,12.50
2023-05-20T01:04:13.474Z,13.07
2023-05-20T01:07:16.579Z,13.02
2023-05-20T01:10:18.804Z,11.85
2023-05-20T01:13:24.368Z,10.73
2023-05-20T01:16:26.905Z,12.60
2023-05-20T01:19:37.720Z,10.40
2023-05-20T01:22:47.198Z,12.65
2023-05-20T01:25:49.363Z,10.70
2023-05-20T01:28:51.482Z,14.57
2023-05-20T01:31:54.974Z,12.53
2023-05-20T01:34:57.898Z,10.43
2023-05-20T01:38:00.193Z,10.98
2023-05-20T01:41:02.852Z,11.07
2023-05-20T01:44:05.205Z,13.10
2023-05-20T01:47:07.592Z,13.30
2023-05-20T01:50:09.922Z,14.43
2023-05-20T01:53:13.356Z,12.50
2023-05-20T01:56:17.116Z,13.55
2023-05-20T01:59:19.337Z,12.20
2023-05-20T02:02:21.641Z,12.93
2023-05-20T02:05:23.925Z,12.23
2023-05-20T02:08:26.421Z,11.82
2023-05-20T02:11:29.219Z,14.98
2023-05-20T02:14:31.789Z,11.43
2023-05-20T02:17:34.063Z,14.00
2023-05-20T02:20:37.001Z,13.50
2023-05-20T02:23:39.459Z,15.60
2023-05-20T02:26:42.045Z,13.50
2023-05-20T02:29:44.499Z,13.07
2023-05-20T02:32:47.389Z,14.40
2023-05-20T02:35:49.723Z,14.52
2023-05-20T02:38:54.309Z,12.18
2023-05-20T02:41:56.552Z,13.45
2023-05-20T02:44:59.131Z,16.17
2023-05-20T02:48:01.521Z,13.30
2023-05-20T02:51:03.790Z,12.57
2023-05-20T02:54:06.468Z,15.30
2023-05-20T02:57:08.676Z,14.60
2023-05-20T03:00:11.545Z,13.48
2023-05-20T03:03:13.747Z,11.33
2023-05-20T03:06:16.054Z,12.55
2023-05-20T03:09:19.613Z,14.05
2023-05-20T03:12:21.880Z,15.30
2023-05-20T03:15:24.425Z,12.73
2023-05-20T03:18:26.640Z,13.77
2023-05-20T03:21:29.263Z,14.30
2023-05-20T03:24:32.307Z,12.30
2023-05-20T03:27:34.726Z,11.57
2023-05-20T03:30:37.852Z,15.57
2023-05-20T03:33:40.619Z,19.03
2023-05-20T03:36:42.990Z,13.25
2023-05-20T03:39:45.256Z,12.48
2023-05-20T03:42:47.727Z,14.82
2023-05-20T03:45:49.960Z,14.98
2023-05-20T03:48:52.214Z,14.83
2023-05-20T03:51:54.681Z,11.68
2023-05-20T03:54:57.449Z,9.88
2023-05-20T03:58:00.604Z,10.40
2023-05-20T04:01:03.177Z,10.77
2023-05-20T04:04:06.142Z,8.07
2023-05-20T04:07:08.620Z,8.60
2023-05-20T04:10:11.520Z,10.90
2023-05-20T04:13:14.266Z,7.05
2023-05-20T04:16:17.303Z,8.68
2023-05-20T04:19:19.718Z,9.63
2023-05-20T04:22:22.066Z,7.40
2023-05-20T04:25:24.415Z,6.80
2023-05-20T04:28:28.209Z,6.75
2023-05-20T04:31:31.814Z,7.60
2023-05-20T04:34:35.237Z,7.13
2023-05-20T04:37:38.246Z,8.93
2023-05-20T04:40:41.899Z,6.95
2023-05-20T04:43:44.128Z,6.88
2023-05-20T04:46:46.399Z,7.68
2023-05-20T04:49:50.388Z,5.87
2023-05-20T04:52:52.827Z,6.15
2023-05-20T04:55:56.872Z,6.53
2023-05-20T04:58:59.980Z,7.05
2023-05-20T05:02:02.511Z,7.10
2023-05-20T05:05:05.365Z,7.67
2023-05-20T05:08:08.278Z,6.82
2023-05-20T05:11:15.275Z,5.38
2023-05-20T05:14:17.749Z,6.63
2023-05-20T05:17:20.767Z,5.43
2023-05-20T05:20:23.111Z,6.60
2023-05-20T05:23:25.769Z,9.95
2023-05-20T05:26:28.756Z,6.13
2023-05-20T05:29:31.180Z,7.53
2023-05-20T05:32:33.825Z,6.28
2023-05-20T05:35:36.328Z,6.37
2023-05-20T05:38:38.644Z,6.47
2023-05-20T05:41:42.040Z,6.18
2023-05-20T05:44:45.041Z,7.50
2023-05-20T05:47:47.372Z,6.25
2023-05-20T05:50:50.446Z,7.73
2023-05-20T05:53:53.931Z,8.80
2023-05-20T05:56:59.246Z,8.35
2023-05-20T06:00:04.799Z,7.13
2023-05-20T06:03:20.112Z,5.70
2023-05-20T06:06:22.567Z,7.33
2023-05-20T06:09:24.797Z,9.25
2023-05-20T06:12:27.951Z,6.95
2023-05-20T06:15:30.135Z,6.45
2023-05-20T06:18:32.648Z,5.85
2023-05-20T06:21:40.108Z,6.10
2023-05-20T06:24:42.483Z,7.13
2023-05-20T06:27:44.992Z,7.28
2023-05-20T06:30:50.772Z,8.68
2023-05-20T06:33:53.370Z,7.72
2023-05-20T06:36:56.197Z,7.43
2023-05-20T06:39:58.395Z,6.05
2023-05-20T06:43:00.612Z,7.53
2023-05-20T06:46:28.885Z,8.48
2023-05-20T06:49:36.482Z,7.80
2023-05-20T06:52:38.740Z,8.73
2023-05-20T06:55:41.439Z,7.95
2023-05-20T06:58:43.782Z,6.72
2023-05-20T07:01:46.123Z,8.27
2023-05-20T07:04:49.108Z,7.50
2023-05-20T07:07:51.699Z,7.67
2023-05-20T07:10:55.811Z,8.13
2023-05-20T07:13:59.180Z,9.25
2023-05-20T07:17:02.915Z,8.23
2023-05-20T07:20:05.943Z,6.93
2023-05-20T07:23:08.274Z,9.97
2023-05-20T07:26:17.566Z,8.02
2023-05-20T07:29:20.043Z,8.02
2023-05-20T07:32:22.296Z,6.55
2023-05-20T07:35:24.719Z,9.05
2023-05-20T07:38:27.157Z,9.50
2023-05-20T07:41:36.429Z,9.95
2023-05-20T07:44:38.955Z,7.47
2023-05-20T07:47:41.175Z,8.88
2023-05-20T07:50:44.638Z,8.98
2023-05-20T07:53:47.565Z,8.97
2023-05-20T07:56:49.895Z,8.20
2023-05-20T07:59:52.161Z,7.80
2023-05-20T08:02:55.296Z,10.18
2023-05-20T08:06:05.572Z,8.38
2023-05-20T08:09:08.107Z,7.83
2023-05-20T08:12:15.149Z,10.18
2023-05-20T08:15:17.500Z,8.23
2023-05-20T08:18:21.336Z,8.25
2023-05-20T08:21:23.625Z,8.77
2023-05-20T08:24:26.088Z,9.50
2023-05-20T08:27:28.665Z,9.35
2023-05-20T08:30:31.076Z,11.70
2023-05-20T08:33:33.731Z,8.13
2023-05-20T08:36:35.990Z,9.25
2023-05-20T08:39:38.593Z,10.07
2023-05-20T08:42:44.559Z,7.60
2023-05-20T08:45:48.997Z,10.02
2023-05-20T08:48:51.552Z,9.38
2023-05-20T08:51:53.729Z,8.63
2023-05-20T08:54:56.814Z,9.03
2023-05-20T08:57:59.197Z,9.48
2023-05-20T09:01:02.206Z,8.35
2023-05-20T09:04:04.519Z,8.68
2023-05-20T09:07:06.730Z,8.32
2023-05-20T09:10:09.661Z,8.03
2023-05-20T09:13:11.921Z,8.32
2023-05-20T09:16:14.147Z,10.32
2023-05-20T09:19:16.406Z,8.85
2023-05-20T09:22:25.304Z,8.20
2023-05-20T09:25:27.664Z,9.23
2023-05-20T09:28:29.851Z,8.50
2023-05-20T09:31:34.090Z,9.05
2023-05-20T09:34:36.824Z,8.77
2023-05-20T09:37:40.998Z,11.70
2023-05-20T09:40:44.520Z,9.83
2023-05-20T09:43:46.944Z,8.07
2023-05-20T09:46:50.534Z,8.52
2023-05-20T09:49:53.134Z,8.20
2023-05-20T09:52:55.799Z,8.70
2023-05-20T09:55:58.377Z,9.10
2023-05-20T09:59:01.440Z,7.70
2023-05-20T10:02:04.155Z,10.32
2023-05-20T10:05:07.990Z,9.80
2023-05-20T10:08:16.659Z,9.23
2023-05-20T10:11:34.220Z,8.40
2023-05-20T10:14:54.881Z,8.52
2023-05-20T10:18:10.924Z,7.95
2023-05-20T10:21:17.046Z,8.70
2023-05-20T10:24:29.079Z,8.43
2023-05-20T10:27:31.582Z,11.70
2023-05-20T10:30:34.019Z,8.57
2023-05-20T10:33:41.967Z,7.97
2023-05-20T10:36:58.266Z,7.55
2023-05-20T10:40:04.146Z,8.90
2023-05-20T10:43:09.345Z,10.30
2023-05-20T10:46:30.170Z,8.68
2023-05-20T10:49:41.319Z,7.70
2023-05-20T10:52:43.533Z,7.80
2023-05-20T10:55:51.788Z,8.70
2023-05-20T10:58:54.745Z,8.10
2023-05-20T11:01:57.020Z,8.07
2023-05-20T11:04:59.282Z,8.15
2023-05-20T11:08:04.415Z,8.00
2023-05-20T11:11:14.468Z,7.75
2023-05-20T11:14:18.347Z,7.23
2023-05-20T11:17:20.785Z,7.38
2023-05-20T11:20:26.182Z,9.57
2023-05-20T11:23:28.906Z,10.73
2023-05-20T11:26:31.967Z,8.70
2023-05-20T11:29:34.132Z,7.03
2023-05-20T11:32:36.609Z,6.45
2023-05-20T11:35:44.915Z,7.60
2023-05-20T11:38:48.248Z,6.47
2023-05-20T11:41:50.826Z,6.25
2023-05-20T11:44:52.954Z,5.77
2023-05-20T11:48:04.591Z,6.78
2023-05-20T11:51:08.561Z,7.25
2023-05-20T11:54:10.766Z,7.00
2023-05-20T11:57:12.942Z,8.18
2023-05-20T12:00:15.234Z,6.93
2023-05-20T12:03:17.562Z,6.63
2023-05-20T12:06:20.084Z,6.53
2023-05-20T12:09:22.650Z,7.18
2023-05-20T12:12:25.663Z,7.10
2023-05-20T12:15:27.809Z,6.80
2023-05-20T12:18:29.986Z,7.47
2023-05-20T12:21:32.282Z,7.88
2023-05-20T12:24:34.548Z,7.60
2023-05-20T12:27:36.735Z,8.00
2023-05-20T12:30:38.910Z,8.00
2023-05-20T12:33:41.324Z,8.43
2023-05-20T12:36:43.545Z,8.25
2023-05-20T12:39:46.600Z,8.00
2023-05-20T12:42:48.773Z,7.88
2023-05-20T12:45:52.316Z,8.47
2023-05-20T12:48:54.534Z,8.13
2023-05-20T12:51:56.798Z,8.60
2023-05-20T12:54:59.010Z,7.63
2023-05-20T12:58:01.119Z,7.38
2023-05-20T13:01:03.387Z,7.27
2023-05-20T13:04:06.042Z,7.95
2023-05-20T13:07:08.315Z,7.93
2023-05-20T13:10:11.417Z,7.55
2023-05-20T13:13:14.287Z,8.70
2023-05-20T13:16:18.008Z,7.53
2023-05-20T13:19:22.082Z,7.65
2023-05-20T13:22:24.333Z,8.13
2023-05-20T13:25:26.655Z,8.55
2023-05-20T13:28:28.902Z,8.45
2023-05-20T13:31:31.139Z,7.87
2023-05-20T13:34:33.655Z,8.10
2023-05-20T13:37:35.878Z,8.52
2023-05-20T13:40:38.058Z,8.55
2023-05-20T13:43:42.189Z,9.27
2023-05-20T13:46:44.414Z,8.43
2023-05-20T13:49:46.582Z,8.98
2023-05-20T13:52:49.823Z,9.05
2023-05-20T13:55:52.012Z,9.30
2023-05-20T13:58:54.298Z,8.63
2023-05-20T14:01:56.518Z,8.70
2023-05-20T14:04:58.664Z,8.23
2023-05-20T14:08:00.993Z,8.93
2023-05-20T14:11:03.246Z,8.50
2023-05-20T14:14:05.492Z,8.77
2023-05-20T14:17:07.740Z,8.70
2023-05-20T14:20:10.202Z,8.90
2023-05-20T14:23:12.717Z,8.60
2023-05-20T14:26:14.875Z,8.98
2023-05-20T14:29:17.039Z,8.85
2023-05-20T14:32:19.265Z,8.60
2023-05-20T14:35:21.572Z,9.25
2023-05-20T14:38:23.922Z,10.95
2023-05-20T14:41:26.150Z,9.07
2023-05-20T14:44:28.311Z,10.50
2023-05-20T14:47:30.692Z,9.00
2023-05-20T14:50:33.092Z,8.48
2023-05-20T14:53:35.406Z,9.68
2023-05-20T14:56:37.836Z,9.77
2023-05-20T14:59:40.085Z,8.32
2023-05-20T15:02:42.332Z,9.33
2023-05-20T15:05:44.660Z,9.35
2023-05-20T15:08:46.830Z,10.20
2023-05-20T15:11:49.275Z,12.38
2023-05-20T15:14:51.511Z,12.60
2023-05-20T15:17:53.774Z,11.27
2023-05-20T15:20:55.949Z,11.18
2023-05-20T15:23:58.099Z,9.35
2023-05-20T15:27:00.364Z,7.53
2023-05-20T15:30:02.658Z,7.20
2023-05-20T15:33:05.111Z,8.03
2023-05-20T15:36:07.578Z,6.65
2023-05-20T15:39:09.690Z,6.65
2023-05-20T15:42:14.001Z,7.50
2023-05-20T15:45:16.284Z,7.95
2023-05-20T15:48:18.472Z,6.23
2023-05-20T15:51:20.692Z,7.35
2023-05-20T15:54:23.060Z,15.52
2023-05-20T15:57:25.294Z,9.07
2023-05-20T16:00:27.637Z,7.82
2023-05-20T16:03:29.992Z,11.63
2023-05-20T16:06:32.742Z,6.93
2023-05-20T16:09:34.885Z,6.95
2023-05-20T16:12:37.041Z,6.05
2023-05-20T16:15:39.215Z,6.45
2023-05-20T16:18:41.468Z,7.87
2023-05-20T16:21:43.670Z,7.45
2023-05-20T16:24:45.987Z,8.43
2023-05-20T16:27:48.110Z,7.85
2023-05-20T16:30:50.357Z,8.20
2023-05-20T16:33:52.578Z,8.07
2023-05-20T16:36:54.782Z,9.52
2023-05-20T16:39:57.038Z,14.98
2023-05-20T16:42:59.379Z,14.10
2023-05-20T16:46:01.721Z,14.85
2023-05-20T16:49:03.950Z,8.27
2023-05-20T16:52:06.407Z,7.82
2023-05-20T16:55:08.905Z,10.35
2023-05-20T16:58:11.257Z,8.05
2023-05-20T17:01:13.553Z,9.35
2023-05-20T17:04:15.963Z,11.33
2023-05-20T17:07:18.156Z,10.20
2023-05-20T17:10:20.488Z,14.02
2023-05-20T17:13:22.727Z,10.70
2023-05-20T17:16:25.030Z,9.75
2023-05-20T17:19:27.413Z,7.97
2023-05-20T17:22:29.754Z,8.65
2023-05-20T17:25:31.932Z,11.65
2023-05-20T17:28:34.067Z,9.35
2023-05-20T17:31:36.269Z,8.20
2023-05-20T17:34:38.461Z,9.70
2023-05-20T17:37:40.640Z,11.13
2023-05-20T17:40:42.851Z,10.40
2023-05-20T17:43:45.635Z,8.38
2023-05-20T17:46:48.835Z,9.93
2023-05-20T17:49:51.509Z,7.87
2023-05-20T17:52:53.621Z,11.90
2023-05-20T17:55:55.899Z,12.88
2023-05-20T17:58:58.135Z,10.82
2023-05-20T18:02:01.267Z,8.98
2023-05-20T18:05:04.046Z,8.03
2023-05-20T18:08:06.533Z,8.77
2023-05-20T18:11:08.739Z,7.55
2023-05-20T18:14:11.209Z,9.25
2023-05-20T18:17:13.455Z,13.57
2023-05-20T18:20:15.668Z,10.50
2023-05-20T18:23:17.861Z,8.27
2023-05-20T18:26:20.271Z,7.90
2023-05-20T18:29:23.474Z,10.00
2023-05-20T18:32:28.500Z,11.07
2023-05-20T18:35:30.892Z,8.77
2023-05-20T18:38:33.288Z,9.18
2023-05-20T18:41:46.786Z,9.20
2023-05-20T18:44:49.693Z,10.88
2023-05-20T18:47:53.076Z,10.82
2023-05-20T18:50:56.128Z,7.63
2023-05-20T18:53:58.343Z,9.77
2023-05-20T18:57:03.687Z,7.00
2023-05-20T19:00:10.760Z,7.75
2023-05-20T19:03:12.922Z,10.18
2023-05-20T19:06:16.551Z,8.17
2023-05-20T19:09:19.196Z,7.90
2023-05-20T19:12:21.397Z,8.75
2023-05-20T19:15:23.582Z,8.85
2023-05-20T19:18:26.006Z,8.20
2023-05-20T19:21:28.227Z,9.67
2023-05-20T19:24:31.932Z,8.95
2023-05-20T19:27:34.109Z,6.70
2023-05-20T19:30:36.317Z,6.10
2023-05-20T19:33:40.108Z,7.25
2023-05-20T19:36:42.887Z,7.00
2023-05-20T19:39:45.104Z,6.70
2023-05-20T19:42:47.362Z,6.20
2023-05-20T19:45:49.615Z,7.40
2023-05-20T19:48:51.831Z,5.95
2023-05-20T19:51:54.071Z,6.40
2023-05-20T19:54:56.326Z,5.20
2023-05-20T19:57:58.553Z,6.68
2023-05-20T20:01:00.824Z,6.68
2023-05-20T20:04:03.049Z,5.47
2023-05-20T20:07:07.540Z,6.03
2023-05-20T20:10:10.536Z,8.48
2023-05-20T20:13:12.848Z,7.53
2023-05-20T20:16:15.658Z,7.35
2023-05-20T20:19:22.794Z,5.95
2023-05-20T20:22:25.399Z,6.60
2023-05-20T20:25:27.618Z,7.90
2023-05-20T20:28:29.859Z,6.63
2023-05-20T20:31:32.069Z,7.32
2023-05-20T20:34:34.278Z,6.18
2023-05-20T20:37:37.860Z,7.63
2023-05-20T20:40:42.618Z,7.72
2023-05-20T20:43:47.764Z,5.82
2023-05-20T20:46:54.916Z,6.57
2023-05-20T20:49:57.341Z,7.35
2023-05-20T20:52:59.492Z,6.80
2023-05-20T20:56:01.655Z,6.70
2023-05-20T20:59:04.192Z,7.03
2023-05-20T21:02:06.641Z,8.10
2023-05-20T21:05:09.284Z,6.18
2023-05-20T21:08:13.357Z,5.33
2023-05-20T21:11:15.864Z,8.68
2023-05-20T21:14:18.087Z,7.38
2023-05-20T21:17:20.431Z,8.93
2023-05-20T21:20:22.741Z,7.10
2023-05-20T21:23:24.971Z,6.90
2023-05-20T21:26:27.190Z,5.65
2023-05-20T21:29:30.776Z,7.43
2023-05-20T21:32:33.623Z,8.50
2023-05-20T21:35:36.120Z,7.50
2023-05-20T21:38:38.497Z,5.87
2023-05-20T21:41:40.751Z,4.95
2023-05-20T21:44:43.021Z,7.82
2023-05-20T21:47:46.443Z,6.20
2023-05-20T21:50:48.696Z,7.03
2023-05-20T21:53:50.890Z,5.37
2023-05-20T21:56:53.152Z,7.68
2023-05-20T21:59:55.405Z,5.60
2023-05-20T22:02:57.814Z,7.97
2023-05-20T22:06:00.942Z,7.55
2023-05-20T22:09:03.602Z,7.33
2023-05-20T22:12:05.770Z,8.18
2023-05-20T22:15:08.486Z,6.03
2023-05-20T22:18:12.376Z,9.25
2023-05-20T22:21:14.790Z,7.68
2023-05-20T22:24:17.828Z,8.47
2023-05-20T22:27:20.178Z,5.85
2023-05-20T22:30:22.459Z,6.75
2023-05-20T22:33:24.688Z,6.25
2023-05-20T22:36:27.820Z,10.02
2023-05-20T22:39:29.922Z,9.17
2023-05-20T22:42:32.061Z,6.28
2023-05-20T22:45:34.353Z,7.68
2023-05-20T22:48:36.851Z,5.70
2023-05-20T22:51:38.988Z,9.20
2023-05-20T22:54:41.267Z,8.07
2023-05-20T22:57:43.471Z,8.10
2023-05-20T23:00:45.848Z,6.47
2023-05-20T23:03:48.150Z,7.90
2023-05-20T23:06:53.920Z,7.43
2023-05-20T23:09:56.093Z,5.70
2023-05-20T23:12:58.253Z,10.25
2023-05-20T23:16:01.495Z,6.88
2023-05-20T23:19:03.736Z,8.18
2023-05-20T23:22:05.969Z,7.95
2023-05-20T23:25:08.439Z,7.23
2023-05-20T23:28:10.684Z,7.10
2023-05-20T23:31:14.801Z,8.15
2023-05-20T23:34:17.194Z,9.73
2023-05-20T23:37:20.256Z,8.20
2023-05-20T23:40:22.541Z,7.90
2023-05-20T23:43:24.753Z,7.25
2023-05-20T23:46:27.096Z,7.60
2023-05-20T23:49:29.755Z,7.75
2023-05-20T23:52:31.921Z,8.05
2023-05-20T23:55:34.223Z,7.10
2023-05-20T23:58:36.519Z,7.47
